ADDS METAR Data INFO
IDs: Format: Raw Decoded Include TAF

Data at: 0939 UTC 25 Jun 2018

KASD 250853Z AUTO 00000KT 10SM CLR 24/23 A3001 RMK AO2 SLP163 T02440228 57001 TSNO
KASD 250753Z AUTO 00000KT 10SM CLR 25/23 A3002 RMK AO2 SLP164 T02500233 TSNO
KASD 250653Z AUTO 00000KT 10SM CLR 27/24 A3002 RMK AO2 SLP164 T02670239 TSNO
KASD 250553Z AUTO 18004KT 10SM CLR 27/24 A3002 RMK AO2 SLP164 T02670239 10317 20267 403440250 50001 TSNO
KASD 250453Z AUTO 18006KT 10SM CLR 28/24 A3002 RMK AO2 SLP167 T02780239 TSNO
KASD 250353Z AUTO 18006KT 10SM CLR 28/24 A3002 RMK AO2 SLP166 T02830239 TSNO
KASD 250253Z AUTO 17004KT 10SM CLR 28/23 A3001 RMK AO2 SLP163 T02830228 53018 TSNO
KASD 250153Z AUTO 18004KT 10SM CLR 30/23 A2999 RMK AO2 SLP156 T03000233 TSNO
KASD 250053Z AUTO 17006KT 10SM CLR 31/23 A2997 RMK AO2 SLP148 T03060233 TSNO
KASD 242353Z AUTO 21007KT 10SM FEW041 32/23 A2996 RMK AO2 SLP145 T03170228 10344 20317 55007 TSNO
KASD 242253Z AUTO 19010KT 10SM CLR 33/22 A2995 RMK AO2 SLP143 T03330222 TSNO
KASD 242153Z AUTO 20007G17KT 170V230 10SM CLR 34/22 A2997 RMK AO2 SLP147 T03390222 TSNO
KASD 242053Z AUTO 20008KT 10SM FEW042 34/22 A2998 RMK AO2 SLP152 T03440222 56010 TSNO
KASD 241953Z AUTO 20011KT 10SM FEW041 34/22 A2999 RMK AO2 SLP155 T03390222 TSNO
KASD 241853Z AUTO 15008KT 10SM SCT040 33/23 A3000 RMK AO2 SLP158 T03330228 TSNO
KASD 241753Z AUTO 18007KT 10SM FEW042 SCT050 33/23 A3001 RMK AO2 SLP162 60001 T03280228 10328 20278 50001 TSNO
KASD 241653Z AUTO VRB05KT 10SM SCT038 33/23 A3002 RMK AO2 SLP166 T03280228 TSNO
KASD 241553Z AUTO 21007KT 180V240 10SM CLR 32/22 A3003 RMK AO2 SLP167 T03170222 TSNO
KASD 241453Z AUTO 21007KT 10SM SCT028 31/23 A3001 RMK AO2 SLP162 60001 T03060233 51011 TSNO
KASD 241423Z AUTO 22004G16KT 10SM SCT023 SCT029 30/23 A3001 RMK AO2 T03000233 TSNO
KASD 241353Z AUTO VRB06KT 10SM SCT021 BKN028 29/24 A3000 RMK AO2 RAE00 SLP159 P0000 T02940244 TSNO
KASD 241305Z AUTO 22003KT 10SM FEW018 SCT025 28/26 A3000 RMK AO2 RAE00 P0000 T02780256 TSNO
KASD 241253Z AUTO 22004KT 7SM -RA BKN018 BKN024 OVC050 28/26 A2999 RMK AO2 RAB30E44B49 SLP156 P0001 T02780256 TSNO
KASD 241246Z AUTO 21004KT 10SM SCT018 BKN027 OVC060 28/25 A2999 RMK AO2 RAB30E44 P0000 T02780250 TSNO
KASD 241206Z AUTO 19005KT 10SM FEW022 SCT027 28/25 A2998 RMK AO2 T02830250 TSNO
KASD 241153Z AUTO 00000KT 10SM FEW020 BKN027 BKN038 27/24 A2998 RMK AO2 SLP151 T02720244 10278 20250 51004 TSNO
KASD 241111Z AUTO 00000KT 10SM FEW022 SCT028 26/24 A2998 RMK AO2 T02560239 TSNO
KASD 241053Z AUTO 00000KT 10SM BKN023 OVC034 26/23 A2998 RMK AO2 SLP151 T02560233 TSNO
KASD 240953Z AUTO 00000KT 10SM BKN021 26/23 A2997 RMK AO2 SLP148 T02560233 TSNO
KASD 240938Z AUTO 00000KT 10SM SCT019 BKN024 26/23 A2996 RMK AO2 T02560233 TSNO
KASD 240853Z AUTO 00000KT 10SM FEW016 26/24 A2996 RMK AO2 SLP144 T02560239 53005 TSNO
KASD 240753Z AUTO 00000KT 10SM FEW020 27/24 A2995 RMK AO2 SLP141 T02670244 TSNO
KASD 240653Z AUTO 19003KT 10SM CLR 28/24 A2995 RMK AO2 SLP141 T02780239 TSNO
KASD 240553Z AUTO 20006KT 10SM CLR 28/24 A2994 RMK AO2 SLP139 T02780239 10322 20278 403440267 50003 TSNO
KASD 240453Z AUTO 19005KT 10SM CLR 28/24 A2995 RMK AO2 SLP142 T02830239 TSNO
KASD 240353Z AUTO 19005KT 10SM CLR 29/24 A2995 RMK AO2 SLP140 T02890239 TSNO
KASD 240253Z AUTO 18009KT 10SM CLR 29/23 A2993 RMK AO2 SLP136 T02940233 53020 TSNO
KASD 240153Z AUTO 18007KT 10SM SCT032 BKN041 BKN050 30/23 A2991 RMK AO2 SLP128 T03000233 TSNO
KASD 240053Z AUTO 20007KT 10SM BKN037 BKN049 31/23 A2989 RMK AO2 SLP122 T03110233 TSNO
KASD 232353Z AUTO 21008KT 10SM CLR 32/22 A2987 RMK AO2 SLP115 T03220222 10344 20322 56012 TSNO
KASD 232253Z AUTO 20009KT 10SM CLR 33/21 A2988 RMK AO2 SLP118 T03280211 TSNO
KASD 232153Z AUTO 20008KT 10SM CLR 34/19 A2989 RMK AO2 SLP122 T03390189 TSNO